createdAt,value
2022-09-02T00:03:38.811Z,47.83
2022-09-02T00:08:45.027Z,48.53
2022-09-02T00:13:51.991Z,48.17
2022-09-02T00:18:58.736Z,47.77
2022-09-02T00:24:06.091Z,47.85
2022-09-02T00:29:14.688Z,47.85
2022-09-02T00:34:20.967Z,47.73
2022-09-02T00:39:26.536Z,47.00
2022-09-02T00:44:32.158Z,48.30
2022-09-02T00:49:40.354Z,48.23
2022-09-02T00:54:49.063Z,48.43
2022-09-02T01:00:19.265Z,46.93
2022-09-02T01:05:27.355Z,47.37
2022-09-02T01:10:35.158Z,47.17
2022-09-02T01:15:44.433Z,47.20
2022-09-02T01:20:50.259Z,47.10
2022-09-02T01:25:56.269Z,47.40
2022-09-02T01:31:01.856Z,47.57
2022-09-02T01:36:08.993Z,47.27
2022-09-02T01:41:15.257Z,46.85
2022-09-02T01:46:21.431Z,47.03
2022-09-02T01:51:26.904Z,47.37
2022-09-02T01:56:32.246Z,47.43
2022-09-02T02:01:38.067Z,47.43
2022-09-02T02:06:45.951Z,47.70
2022-09-02T02:11:53.085Z,47.14
2022-09-02T02:16:58.619Z,46.93
2022-09-02T02:22:04.321Z,46.57
2022-09-02T02:27:09.282Z,46.20
2022-09-02T02:32:14.539Z,46.93
2022-09-02T02:37:25.505Z,47.40
2022-09-02T02:42:29.198Z,48.87
2022-09-02T02:47:35.298Z,47.37
2022-09-02T02:52:42.003Z,46.30
2022-09-02T02:57:47.761Z,47.33
2022-09-02T03:02:58.688Z,47.00
2022-09-02T03:08:06.048Z,46.57
2022-09-02T03:13:13.353Z,46.45
2022-09-02T03:18:19.250Z,47.13
2022-09-02T03:23:24.339Z,46.73
2022-09-02T03:28:30.424Z,46.05
2022-09-02T03:33:36.802Z,46.50
2022-09-02T03:38:42.665Z,46.07
2022-09-02T03:43:48.284Z,46.43
2022-09-02T03:48:53.797Z,46.63
2022-09-02T03:53:59.244Z,46.27
2022-09-02T03:59:06.042Z,46.50
2022-09-02T04:04:12.891Z,47.28
2022-09-02T04:09:18.662Z,46.55
2022-09-02T04:14:23.760Z,47.17
2022-09-02T04:19:28.972Z,46.98
2022-09-02T04:24:34.617Z,46.33
2022-09-02T04:29:39.626Z,46.27
2022-09-02T04:34:45.885Z,45.77
2022-09-02T04:39:52.704Z,45.70
2022-09-02T04:44:58.240Z,45.33
2022-09-02T04:50:03.255Z,45.20
2022-09-02T04:55:08.978Z,45.73
2022-09-02T05:00:15.508Z,46.20
2022-09-02T05:05:20.534Z,46.33
2022-09-02T05:10:26.189Z,45.93
2022-09-02T05:15:32.845Z,46.83
2022-09-02T05:20:44.539Z,47.93
2022-09-02T05:25:49.509Z,47.07
2022-09-02T05:30:56.093Z,48.93
2022-09-02T05:41:10.261Z,49.27
2022-09-02T05:46:18.746Z,48.43
2022-09-02T05:51:26.028Z,49.47
2022-09-02T05:56:32.338Z,49.57
2022-09-02T06:01:38.942Z,48.70
2022-09-02T06:06:45.325Z,48.98
2022-09-02T06:11:52.700Z,50.12
2022-09-02T06:17:00.325Z,51.00
2022-09-02T06:22:06.993Z,50.37
2022-09-02T06:27:12.339Z,50.67
2022-09-02T06:32:18.017Z,51.08
2022-09-02T06:37:24.049Z,51.03
2022-09-02T06:42:29.554Z,52.43
2022-09-02T06:47:34.794Z,52.57
2022-09-02T06:52:40.614Z,52.33
2022-09-02T06:57:46.782Z,51.08
2022-09-02T07:02:54.364Z,51.58
2022-09-02T07:07:59.586Z,56.65
2022-09-02T07:13:04.951Z,53.30
2022-09-02T07:18:10.014Z,55.23
2022-09-02T07:23:17.137Z,51.75
2022-09-02T07:28:23.273Z,53.27
2022-09-02T07:33:29.137Z,54.00
2022-09-02T07:38:35.121Z,52.83
2022-09-02T07:43:41.905Z,52.55
2022-09-02T07:48:49.310Z,54.77
2022-09-02T07:53:54.841Z,55.87
2022-09-02T07:59:00.512Z,57.33
2022-09-02T08:04:07.495Z,54.58
2022-09-02T08:09:13.990Z,56.57
2022-09-02T08:14:26.206Z,53.50
2022-09-02T08:19:32.799Z,53.57
2022-09-02T08:24:37.826Z,52.63
2022-09-02T08:29:43.550Z,52.97
2022-09-02T08:34:48.567Z,52.77
2022-09-02T08:39:53.887Z,54.17
2022-09-02T08:45:02.588Z,51.98
2022-09-02T08:50:14.721Z,52.03
2022-09-02T08:55:25.095Z,51.85
2022-09-02T09:00:33.924Z,51.63
2022-09-02T09:05:54.494Z,51.77
2022-09-02T09:11:09.293Z,51.73
2022-09-02T09:16:33.588Z,51.53
2022-09-02T09:21:40.867Z,51.00
2022-09-02T09:26:47.875Z,51.30
2022-09-02T09:32:00.202Z,52.13
2022-09-02T09:37:05.970Z,51.97
2022-09-02T09:42:14.858Z,51.63
2022-09-02T09:47:23.259Z,51.50
2022-09-02T09:52:32.449Z,51.35
2022-09-02T09:57:38.058Z,51.07
2022-09-02T10:02:52.780Z,51.20
2022-09-02T10:08:10.130Z,51.77
2022-09-02T10:13:28.901Z,51.53
2022-09-02T10:18:43.175Z,52.05
2022-09-02T10:23:56.985Z,51.92
2022-09-02T10:29:25.317Z,51.70
2022-09-02T10:34:36.269Z,51.60
2022-09-02T10:40:01.388Z,51.27
2022-09-02T10:45:26.064Z,51.10
2022-09-02T10:50:37.494Z,51.47
2022-09-02T10:55:50.674Z,51.63
2022-09-02T11:00:58.285Z,51.43
2022-09-02T11:06:07.793Z,52.40
2022-09-02T11:11:22.604Z,51.93
2022-09-02T11:16:44.288Z,51.70
2022-09-02T11:22:08.044Z,51.65
2022-09-02T11:27:39.089Z,51.73
2022-09-02T11:32:32.755Z,51.97
2022-09-02T11:37:44.441Z,51.30
2022-09-02T11:43:23.791Z,51.08
2022-09-02T11:48:55.469Z,51.53
2022-09-02T11:54:04.758Z,52.97
2022-09-02T11:59:13.721Z,51.10
2022-09-02T12:04:58.829Z,51.15
2022-09-02T12:09:50.079Z,51.80
2022-09-02T12:15:02.491Z,52.13
2022-09-02T12:20:14.169Z,51.63
2022-09-02T12:25:32.843Z,52.27
2022-09-02T12:31:04.051Z,52.07
2022-09-02T12:36:11.001Z,51.60
2022-09-02T12:41:23.130Z,52.37
2022-09-02T12:46:50.080Z,52.30
2022-09-02T12:51:58.221Z,51.90
2022-09-02T12:57:05.566Z,51.77
2022-09-02T13:02:20.710Z,52.38
2022-09-02T13:07:35.262Z,52.10
2022-09-02T13:13:00.727Z,52.10
2022-09-02T13:18:14.600Z,52.03
2022-09-02T13:23:40.201Z,51.80
2022-09-02T13:29:01.229Z,52.23
2022-09-02T13:34:14.686Z,51.97
2022-09-02T13:39:21.712Z,51.57
2022-09-02T13:44:29.839Z,51.98
2022-09-02T13:49:38.121Z,51.90
2022-09-02T13:54:46.441Z,52.67
2022-09-02T13:59:55.127Z,53.13
2022-09-02T14:05:08.895Z,52.27
2022-09-02T14:10:17.933Z,51.85
2022-09-02T14:15:31.924Z,52.30
2022-09-02T14:20:41.082Z,51.60
2022-09-02T14:25:56.786Z,52.13
2022-09-02T14:31:10.438Z,52.03
2022-09-02T14:36:19.942Z,52.90
2022-09-02T14:41:30.741Z,53.10
2022-09-02T14:46:40.243Z,52.43
2022-09-02T14:51:59.485Z,51.93
2022-09-02T14:57:06.806Z,52.10
2022-09-02T15:02:27.899Z,51.77
2022-09-02T15:07:33.719Z,52.93
2022-09-02T15:12:48.589Z,51.27
2022-09-02T15:17:54.647Z,51.53
2022-09-02T15:23:00.764Z,51.65
2022-09-02T15:28:07.331Z,52.03
2022-09-02T15:33:16.954Z,51.84
2022-09-02T15:38:20.966Z,51.97
2022-09-02T15:43:26.827Z,51.58
2022-09-02T15:48:33.622Z,52.00
2022-09-02T15:53:39.802Z,52.33
2022-09-02T15:58:47.398Z,51.42
2022-09-02T16:03:54.048Z,53.87
2022-09-02T16:08:59.826Z,58.37
2022-09-02T16:14:05.452Z,52.83
2022-09-02T16:19:11.602Z,52.98
2022-09-02T16:24:18.950Z,51.90
2022-09-02T16:29:26.171Z,52.30
2022-09-02T16:34:33.514Z,52.45
2022-09-02T16:39:41.221Z,52.30
2022-09-02T16:44:51.622Z,52.00
2022-09-02T16:49:57.490Z,52.43
2022-09-02T16:55:02.867Z,51.92
2022-09-02T17:00:10.838Z,51.73
2022-09-02T17:05:18.052Z,51.60
2022-09-02T17:10:23.268Z,51.53
2022-09-02T17:15:30.034Z,52.07
2022-09-02T17:20:36.159Z,52.13
2022-09-02T17:25:42.997Z,52.80
2022-09-02T17:30:48.511Z,50.85
2022-09-02T17:35:58.970Z,50.90
2022-09-02T17:41:22.645Z,51.00
2022-09-02T17:46:27.990Z,51.00
2022-09-02T17:51:34.774Z,50.37
2022-09-02T17:56:59.381Z,51.07
2022-09-02T18:02:14.953Z,50.63
2022-09-02T18:07:52.056Z,51.07
2022-09-02T18:18:05.637Z,50.33
2022-09-02T18:23:17.277Z,51.23
2022-09-02T18:28:34.617Z,50.93
2022-09-02T18:33:55.526Z,51.57
2022-09-02T18:39:27.108Z,51.67
2022-09-02T18:44:58.720Z,51.70
2022-09-02T18:50:06.749Z,51.03
2022-09-02T18:55:15.615Z,50.70
2022-09-02T19:00:23.094Z,51.18
2022-09-02T19:05:32.448Z,51.93
2022-09-02T19:10:43.357Z,51.02
2022-09-02T19:15:50.503Z,51.77
2022-09-02T19:21:01.156Z,51.80
2022-09-02T19:26:07.861Z,51.43
2022-09-02T19:31:27.184Z,51.18
2022-09-02T19:36:36.649Z,52.17
2022-09-02T19:41:43.640Z,51.80
2022-09-02T19:47:42.314Z,52.03
2022-09-02T19:52:02.213Z,51.67
2022-09-02T19:57:08.686Z,51.18
2022-09-02T20:02:16.853Z,52.55
2022-09-02T20:07:23.888Z,51.05
2022-09-02T20:12:32.898Z,51.33
2022-09-02T20:17:38.943Z,50.20
2022-09-02T20:22:46.095Z,51.20
2022-09-02T20:28:14.733Z,50.50
2022-09-02T20:33:23.385Z,50.90
2022-09-02T20:38:52.542Z,50.30
2022-09-02T20:44:16.820Z,50.37
2022-09-02T20:49:48.643Z,50.70
2022-09-02T20:54:57.848Z,49.93
2022-09-02T21:00:13.910Z,50.57
2022-09-02T21:05:22.837Z,49.50
2022-09-02T21:10:37.379Z,50.80
2022-09-02T21:15:57.334Z,50.20
2022-09-02T21:21:08.081Z,49.98
2022-09-02T21:26:38.112Z,50.03
2022-09-02T21:31:47.230Z,50.60
2022-09-02T21:36:56.369Z,50.77
2022-09-02T21:42:19.708Z,50.50
2022-09-02T21:47:36.646Z,50.03
2022-09-02T21:52:56.993Z,50.45
2022-09-02T21:58:36.262Z,49.90
2022-09-02T22:03:53.465Z,49.83
2022-09-02T22:09:08.989Z,49.93
2022-09-02T22:14:16.655Z,49.73
2022-09-02T22:19:26.913Z,50.50
2022-09-02T22:24:33.711Z,49.25
2022-09-02T22:29:50.941Z,49.60
2022-09-02T22:34:59.277Z,49.07
2022-09-02T22:40:08.057Z,50.07
2022-09-02T22:45:40.541Z,49.85
2022-09-02T22:51:06.591Z,49.17
2022-09-02T22:56:13.541Z,48.83
2022-09-02T23:01:32.639Z,48.97
2022-09-02T23:06:39.106Z,48.73
2022-09-02T23:17:16.464Z,49.67
2022-09-02T23:22:46.845Z,49.33
2022-09-02T23:27:55.897Z,48.94
2022-09-02T23:33:13.450Z,48.97
2022-09-02T23:38:39.988Z,48.70
2022-09-02T23:43:46.631Z,48.95
2022-09-02T23:49:06.128Z,49.15
2022-09-02T23:54:26.664Z,48.73
